createdAt,value
2018-09-12T00:01:36.203Z,18.80
2018-09-12T00:04:05.507Z,18.70
2018-09-12T00:06:34.263Z,18.70
2018-09-12T00:09:04.245Z,18.70
2018-09-12T00:11:33.015Z,18.60
2018-09-12T00:14:01.817Z,18.50
2018-09-12T00:16:30.819Z,18.40
2018-09-12T00:19:00.208Z,18.30
2018-09-12T00:21:31.713Z,18.30
2018-09-12T00:24:00.482Z,18.20
2018-09-12T00:26:29.327Z,18.20
2018-09-12T00:28:58.524Z,18.20
2018-09-12T00:31:27.256Z,18.20
2018-09-12T00:33:56.038Z,18.20
2018-09-12T00:36:24.792Z,18.30
2018-09-12T00:38:53.501Z,18.20
2018-09-12T00:41:22.216Z,18.30
2018-09-12T00:43:51.116Z,18.30
2018-09-12T00:46:19.847Z,18.30
2018-09-12T00:48:48.660Z,18.40
2018-09-12T00:51:18.333Z,18.30
2018-09-12T00:53:47.096Z,18.30
2018-09-12T00:56:15.868Z,18.30
2018-09-12T00:58:44.600Z,18.30
2018-09-12T01:01:13.352Z,18.30
2018-09-12T01:03:42.106Z,18.30
2018-09-12T01:06:10.875Z,18.20
2018-09-12T01:08:39.697Z,18.20
2018-09-12T01:11:08.732Z,18.10
2018-09-12T01:13:37.499Z,18.10
2018-09-12T01:16:07.768Z,18.10
2018-09-12T01:18:36.529Z,18.00
2018-09-12T01:21:05.477Z,17.90
2018-09-12T01:23:34.212Z,17.90
2018-09-12T01:26:02.943Z,17.90
2018-09-12T01:28:31.804Z,17.90
2018-09-12T01:31:00.588Z,17.90
2018-09-12T01:33:29.387Z,17.90
2018-09-12T01:35:58.152Z,18.00
2018-09-12T01:38:26.865Z,18.00
2018-09-12T01:40:55.803Z,18.00
2018-09-12T01:43:24.531Z,18.00
2018-09-12T01:45:53.249Z,17.90
2018-09-12T01:48:21.936Z,17.90
2018-09-12T01:50:51.189Z,17.90
2018-09-12T01:53:19.915Z,17.90
2018-09-12T01:55:48.626Z,17.90
2018-09-12T01:58:17.647Z,17.80
2018-09-12T02:00:46.377Z,17.80
2018-09-12T02:03:15.132Z,17.80
2018-09-12T02:05:43.838Z,17.90
2018-09-12T02:08:14.266Z,17.90
2018-09-12T02:10:43.087Z,17.80
2018-09-12T02:13:13.380Z,17.80
2018-09-12T02:15:42.470Z,17.80
2018-09-12T02:18:11.329Z,17.80
2018-09-12T02:20:41.509Z,17.70
2018-09-12T02:23:10.233Z,17.70
2018-09-12T02:25:40.807Z,17.60
2018-09-12T02:28:11.910Z,17.60
2018-09-12T02:30:41.376Z,17.60
2018-09-12T02:33:10.352Z,17.60
2018-09-12T02:35:44.307Z,17.60
2018-09-12T02:38:13.027Z,17.70
2018-09-12T02:40:41.780Z,17.70
2018-09-12T02:43:10.510Z,17.70
2018-09-12T02:45:40.011Z,17.60
2018-09-12T02:48:08.853Z,17.70
2018-09-12T02:50:38.007Z,17.60
2018-09-12T02:53:06.913Z,17.60
2018-09-12T02:55:35.697Z,17.60
2018-09-12T02:58:04.513Z,17.50
2018-09-12T03:03:24.397Z,17.40
2018-09-12T03:05:53.853Z,17.30
2018-09-12T03:08:23.007Z,17.30
2018-09-12T03:10:51.958Z,17.30
2018-09-12T03:13:20.917Z,17.30
2018-09-12T03:15:49.624Z,17.30
2018-09-12T03:18:18.354Z,17.30
2018-09-12T03:20:47.190Z,17.30
2018-09-12T03:23:16.654Z,17.40
2018-09-12T03:25:45.616Z,17.40
2018-09-12T03:28:14.354Z,17.40
2018-09-12T03:30:43.062Z,17.30
2018-09-12T03:33:11.821Z,17.30
2018-09-12T03:35:40.526Z,17.20
2018-09-12T03:38:09.260Z,17.20
2018-09-12T03:40:37.993Z,17.10
2018-09-12T03:43:06.748Z,17.10
2018-09-12T03:45:35.516Z,17.10
2018-09-12T03:48:04.356Z,17.10
2018-09-12T03:50:33.468Z,17.00
2018-09-12T03:53:02.258Z,17.00
2018-09-12T03:55:31.183Z,17.00
2018-09-12T03:58:01.148Z,17.00
2018-09-12T04:00:29.854Z,17.00
2018-09-12T04:02:58.623Z,17.00
2018-09-12T04:05:27.989Z,17.00
2018-09-12T04:07:56.699Z,16.90
2018-09-12T04:10:26.510Z,16.90
2018-09-12T04:12:56.563Z,16.90
2018-09-12T04:15:25.297Z,16.80
2018-09-12T04:17:54.736Z,16.70
2018-09-12T04:20:23.543Z,16.70
2018-09-12T04:22:52.295Z,16.60
2018-09-12T04:25:26.144Z,16.70
2018-09-12T04:27:54.904Z,16.70
2018-09-12T04:30:23.629Z,16.70
2018-09-12T04:32:52.369Z,16.60
2018-09-12T04:35:21.224Z,16.60
2018-09-12T04:37:49.998Z,16.70
2018-09-12T04:40:18.746Z,16.60
2018-09-12T04:42:47.575Z,16.70
2018-09-12T04:45:16.408Z,16.70
2018-09-12T04:47:45.185Z,16.70
2018-09-12T04:50:18.416Z,16.80
2018-09-12T04:52:47.199Z,16.80
2018-09-12T04:55:16.742Z,16.80
2018-09-12T04:57:47.403Z,16.80
2018-09-12T05:00:16.176Z,16.80
2018-09-12T05:02:44.948Z,16.80
2018-09-12T05:05:13.742Z,16.80
2018-09-12T05:07:42.500Z,16.80
2018-09-12T05:10:11.374Z,16.80
2018-09-12T05:12:40.133Z,16.80
2018-09-12T05:15:08.957Z,16.90
2018-09-12T05:17:38.232Z,16.80
2018-09-12T05:20:07.764Z,16.90
2018-09-12T05:22:36.799Z,17.00
2018-09-12T05:25:06.860Z,17.10
2018-09-12T05:27:38.170Z,17.20
2018-09-12T05:30:10.903Z,17.30
2018-09-12T05:32:40.611Z,17.30
2018-09-12T05:35:10.205Z,17.20
2018-09-12T05:37:38.976Z,17.20
2018-09-12T05:40:08.569Z,17.20
2018-09-12T05:42:37.971Z,17.30
2018-09-12T05:45:07.741Z,17.30
2018-09-12T05:47:37.312Z,17.20
2018-09-12T05:50:06.969Z,17.10
2018-09-12T05:52:36.522Z,17.20
2018-09-12T05:55:07.667Z,17.20
2018-09-12T05:57:36.467Z,17.20
2018-09-12T06:00:13.225Z,17.20
2018-09-12T06:02:42.033Z,17.20
2018-09-12T06:05:10.919Z,17.50
2018-09-12T06:07:39.759Z,17.60
2018-09-12T06:10:08.811Z,17.60
2018-09-12T06:12:37.660Z,17.60
2018-09-12T06:15:06.615Z,17.60
2018-09-12T06:17:35.451Z,17.50
2018-09-12T06:20:04.803Z,17.70
2018-09-12T06:22:34.720Z,17.90
2018-09-12T06:25:04.162Z,18.10
2018-09-12T06:27:34.420Z,18.30
2018-09-12T06:30:03.943Z,18.30
2018-09-12T06:32:32.879Z,18.50
2018-09-12T06:35:02.631Z,18.50
2018-09-12T06:37:34.486Z,18.60
2018-09-12T06:40:05.037Z,18.60
2018-09-12T06:42:34.142Z,18.60
2018-09-12T06:45:03.795Z,18.80
2018-09-12T06:47:33.706Z,19.00
2018-09-12T06:50:06.048Z,19.10
2018-09-12T06:52:36.486Z,19.30
2018-09-12T06:55:06.344Z,19.40
2018-09-12T06:57:35.313Z,19.50
2018-09-12T07:00:10.237Z,19.40
2018-09-12T07:02:41.751Z,19.40
2018-09-12T07:05:14.564Z,19.50
2018-09-12T07:07:45.200Z,19.50
2018-09-12T07:10:14.308Z,19.40
2018-09-12T07:12:44.090Z,19.50
2018-09-12T07:15:13.324Z,19.50
2018-09-12T07:17:43.199Z,19.70
2018-09-12T07:20:12.120Z,19.80
2018-09-12T07:22:43.148Z,20.00
2018-09-12T07:25:12.058Z,20.10
2018-09-12T07:27:41.432Z,20.20
2018-09-12T07:30:11.172Z,20.30
2018-09-12T07:32:41.665Z,20.50
2018-09-12T07:35:10.665Z,20.50
2018-09-12T07:37:41.506Z,20.70
2018-09-12T07:40:10.687Z,20.80
2018-09-12T07:42:42.246Z,21.00
2018-09-12T07:45:14.066Z,21.20
2018-09-12T07:47:43.331Z,21.30
2018-09-12T07:50:12.153Z,21.50
2018-09-12T07:52:41.693Z,21.80
2018-09-12T07:55:10.553Z,22.00
2018-09-12T07:57:41.385Z,22.10
2018-09-12T08:00:14.327Z,22.30
2018-09-12T08:02:43.076Z,22.40
2018-09-12T08:05:12.283Z,22.50
2018-09-12T08:07:41.149Z,22.50
2018-09-12T08:10:09.982Z,22.70
2018-09-12T08:12:38.955Z,22.80
2018-09-12T08:15:07.914Z,23.20
2018-09-12T08:17:38.340Z,23.10
2018-09-12T08:20:09.729Z,23.40
2018-09-12T08:22:39.389Z,23.70
2018-09-12T08:25:09.639Z,23.70
2018-09-12T08:27:40.094Z,23.80
2018-09-12T08:30:13.859Z,24.10
2018-09-12T08:32:42.660Z,24.20
2018-09-12T08:35:14.589Z,24.50
2018-09-12T08:37:44.507Z,24.70
2018-09-12T08:40:15.158Z,24.80
2018-09-12T08:42:45.899Z,24.70
2018-09-12T08:45:30.119Z,24.80
2018-09-12T08:48:03.267Z,25.10
2018-09-12T08:50:32.045Z,25.20
2018-09-12T08:53:01.304Z,25.40
2018-09-12T08:55:31.221Z,25.60
2018-09-12T08:58:02.018Z,25.90
2018-09-12T09:00:34.821Z,26.20
2018-09-12T09:03:05.600Z,26.70
2018-09-12T09:05:34.502Z,26.60
2018-09-12T09:08:03.546Z,26.40
2018-09-12T09:10:32.366Z,26.40
2018-09-12T09:13:01.128Z,26.60
2018-09-12T09:15:30.721Z,27.00
2018-09-12T09:18:02.050Z,27.30
2018-09-12T09:20:32.580Z,27.70
2018-09-12T09:23:01.484Z,28.00
2018-09-12T09:25:32.534Z,28.60
2018-09-12T09:28:04.399Z,28.60
2018-09-12T09:30:35.435Z,28.80
2018-09-12T09:33:05.352Z,28.60
2018-09-12T09:35:34.233Z,28.50
2018-09-12T09:38:06.176Z,28.70
2018-09-12T09:40:35.373Z,29.10
2018-09-12T09:43:04.835Z,29.20
2018-09-12T09:45:34.334Z,29.50
2018-09-12T09:48:03.407Z,29.60
2018-09-12T09:50:33.592Z,29.30
2018-09-12T09:53:02.460Z,29.80
2018-09-12T09:55:31.264Z,30.20
2018-09-12T09:58:00.908Z,30.60
2018-09-12T10:00:36.750Z,30.50
2018-09-12T10:03:14.567Z,30.80
2018-09-12T10:05:49.695Z,31.30
2018-09-12T10:08:23.652Z,31.60
2018-09-12T10:10:59.779Z,32.40
2018-09-12T10:13:29.623Z,32.80
2018-09-12T10:16:01.204Z,32.80
2018-09-12T10:18:30.186Z,33.10
2018-09-12T10:20:59.421Z,33.10
2018-09-12T10:23:30.197Z,33.40
2018-09-12T10:26:11.379Z,34.10
2018-09-12T10:28:41.264Z,34.50
2018-09-12T10:31:10.128Z,35.10
2018-09-12T10:33:39.767Z,36.00
2018-09-12T10:36:08.563Z,35.40
2018-09-12T10:38:37.338Z,35.20
2018-09-12T10:41:06.394Z,35.20
2018-09-12T10:43:36.355Z,35.50
2018-09-12T10:46:22.352Z,36.30
2018-09-12T10:48:52.685Z,36.40
2018-09-12T10:51:22.558Z,36.40
2018-09-12T10:53:52.918Z,35.40
2018-09-12T10:56:22.051Z,33.60
2018-09-12T10:58:51.336Z,32.80
2018-09-12T11:01:22.676Z,32.60
2018-09-12T11:03:56.256Z,32.30
2018-09-12T11:06:25.990Z,31.90
2018-09-12T11:09:01.382Z,31.60
2018-09-12T11:11:38.678Z,31.10
2018-09-12T11:14:14.100Z,31.00
2018-09-12T11:16:45.347Z,31.00
2018-09-12T11:19:20.229Z,31.30
2018-09-12T11:21:52.178Z,31.40
2018-09-12T11:24:24.621Z,31.70
2018-09-12T11:26:58.422Z,32.10
2018-09-12T11:29:29.534Z,32.20
2018-09-12T11:32:00.153Z,32.40
2018-09-12T11:34:29.283Z,31.80
2018-09-12T11:37:00.354Z,31.80
2018-09-12T11:39:29.283Z,32.20
2018-09-12T11:41:58.677Z,31.90
2018-09-12T11:44:32.509Z,31.80
2018-09-12T11:47:05.084Z,31.80
2018-09-12T11:49:34.515Z,31.90
2018-09-12T11:52:04.994Z,31.90
2018-09-12T11:54:36.258Z,32.00
2018-09-12T11:57:05.125Z,31.80
2018-09-12T11:59:34.585Z,31.80
2018-09-12T12:02:04.410Z,31.90
2018-09-12T12:04:33.288Z,32.30
2018-09-12T12:07:02.364Z,32.60
2018-09-12T12:09:31.177Z,32.80
2018-09-12T12:12:00.277Z,32.60
2018-09-12T12:14:29.012Z,31.90
2018-09-12T12:17:00.598Z,31.70
2018-09-12T12:19:29.324Z,31.80
2018-09-12T12:21:58.107Z,32.20
2018-09-12T12:24:26.860Z,32.60
2018-09-12T12:26:55.763Z,32.90
2018-09-12T12:29:26.025Z,33.30
2018-09-12T12:31:54.765Z,33.50
2018-09-12T12:34:24.142Z,33.20
2018-09-12T12:36:54.276Z,32.40
2018-09-12T12:39:23.356Z,32.20
2018-09-12T12:41:52.222Z,32.00
2018-09-12T12:44:24.131Z,31.90
2018-09-12T12:46:54.115Z,31.60
2018-09-12T12:49:23.440Z,31.40
2018-09-12T12:51:52.167Z,31.00
2018-09-12T12:54:21.924Z,29.70
2018-09-12T12:56:50.830Z,30.00
2018-09-12T12:59:21.967Z,30.10
2018-09-12T13:01:50.992Z,29.90
2018-09-12T13:04:22.184Z,30.20
2018-09-12T13:06:51.256Z,30.60
2018-09-12T13:09:20.461Z,31.10
2018-09-12T13:11:49.187Z,31.50
2018-09-12T13:14:17.976Z,32.20
2018-09-12T13:16:46.730Z,32.50
2018-09-12T13:19:15.477Z,32.10
2018-09-12T13:21:45.117Z,31.40
2018-09-12T13:24:15.169Z,31.60
2018-09-12T13:26:45.300Z,32.20
2018-09-12T13:29:14.795Z,32.70
2018-09-12T13:31:46.605Z,32.70
2018-09-12T13:34:16.301Z,32.70
2018-09-12T13:36:46.305Z,32.60
2018-09-12T13:39:17.084Z,32.40
2018-09-12T13:41:45.937Z,32.00
2018-09-12T13:44:14.760Z,31.40
2018-09-12T13:46:44.295Z,30.80
2018-09-12T13:49:14.312Z,30.50
2018-09-12T13:51:44.604Z,30.40
2018-09-12T13:54:14.405Z,30.30
2018-09-12T13:56:43.305Z,30.30
2018-09-12T13:59:12.253Z,30.20
2018-09-12T14:01:42.105Z,30.10
2018-09-12T14:04:11.380Z,30.00
2018-09-12T14:06:41.239Z,29.80
2018-09-12T14:09:12.056Z,29.70
2018-09-12T14:11:41.419Z,29.70
2018-09-12T14:14:11.634Z,29.60
2018-09-12T14:16:42.592Z,29.40
2018-09-12T14:19:12.582Z,29.30
2018-09-12T14:21:42.648Z,29.30
2018-09-12T14:24:11.431Z,29.10
2018-09-12T14:26:40.177Z,29.00
2018-09-12T14:29:10.991Z,28.90
2018-09-12T14:31:42.039Z,28.70
2018-09-12T14:34:10.955Z,28.70
2018-09-12T14:36:41.573Z,28.50
2018-09-12T14:39:12.292Z,28.50
2018-09-12T14:41:42.183Z,28.50
2018-09-12T14:44:11.346Z,28.50
2018-09-12T14:46:40.467Z,28.50
2018-09-12T14:49:10.837Z,28.40
2018-09-12T14:51:40.204Z,28.20
2018-09-12T14:54:09.852Z,28.10
2018-09-12T14:56:41.564Z,28.00
2018-09-12T14:59:11.667Z,28.00
2018-09-12T15:01:41.110Z,27.90
2018-09-12T15:04:11.350Z,27.90
2018-09-12T15:06:47.550Z,27.80
2018-09-12T15:09:16.255Z,27.80
2018-09-12T15:11:46.230Z,27.80
2018-09-12T15:14:16.064Z,27.70
2018-09-12T15:16:46.204Z,27.60
2018-09-12T15:19:15.651Z,27.40
2018-09-12T15:21:45.750Z,27.30
2018-09-12T15:24:15.509Z,27.20
2018-09-12T15:26:46.253Z,27.10
2018-09-12T15:29:15.892Z,27.10
2018-09-12T15:31:45.525Z,27.10
2018-09-12T15:34:17.417Z,27.10
2018-09-12T15:36:46.781Z,26.90
2018-09-12T15:39:15.524Z,26.80
2018-09-12T15:41:44.314Z,26.50
2018-09-12T15:44:14.412Z,26.40
2018-09-12T15:46:43.265Z,26.30
2018-09-12T15:49:13.610Z,26.20
2018-09-12T15:51:43.483Z,26.00
2018-09-12T15:54:12.229Z,25.70
2018-09-12T15:56:42.957Z,25.40
2018-09-12T15:59:13.442Z,25.00
2018-09-12T16:01:43.137Z,24.70
2018-09-12T16:04:15.355Z,24.60
2018-09-12T16:06:44.116Z,24.40
2018-09-12T16:09:12.944Z,24.10
2018-09-12T16:11:41.786Z,24.00
2018-09-12T16:14:11.837Z,23.60
2018-09-12T16:16:41.902Z,23.30
2018-09-12T16:19:12.590Z,23.20
2018-09-12T16:21:44.512Z,23.10
2018-09-12T16:24:13.465Z,23.00
2018-09-12T16:26:42.820Z,22.90
2018-09-12T16:29:13.160Z,22.70
2018-09-12T16:31:42.266Z,22.70
2018-09-12T16:34:16.387Z,22.80
2018-09-12T16:36:51.212Z,22.70
2018-09-12T16:39:19.952Z,22.70
2018-09-12T16:41:49.636Z,22.60
2018-09-12T16:44:19.345Z,22.40
2018-09-12T16:46:50.716Z,22.30
2018-09-12T16:49:20.300Z,22.20
2018-09-12T16:51:52.356Z,22.10
2018-09-12T16:54:21.488Z,22.00
2018-09-12T16:56:53.320Z,21.90
2018-09-12T16:59:22.760Z,21.80
2018-09-12T17:01:51.830Z,21.80
2018-09-12T17:04:21.841Z,21.60
2018-09-12T17:06:50.930Z,21.40
2018-09-12T17:09:21.821Z,21.30
2018-09-12T17:11:52.603Z,21.10
2018-09-12T17:14:26.081Z,20.80
2018-09-12T17:16:55.187Z,20.40
2018-09-12T17:19:24.708Z,20.30
2018-09-12T17:21:54.197Z,20.50
2018-09-12T17:24:24.836Z,20.60
2018-09-12T17:26:55.322Z,20.50
2018-09-12T17:29:25.692Z,20.40
2018-09-12T17:31:54.600Z,20.30
2018-09-12T17:34:23.584Z,20.20
2018-09-12T17:36:53.241Z,20.20
2018-09-12T17:39:22.316Z,20.10
2018-09-12T17:41:53.680Z,19.70
2018-09-12T17:44:25.553Z,19.50
2018-09-12T17:46:54.341Z,19.30
2018-09-12T17:49:24.301Z,19.20
2018-09-12T17:51:53.986Z,19.10
2018-09-12T17:54:26.999Z,19.20
2018-09-12T17:56:57.243Z,19.20
2018-09-12T17:59:28.084Z,19.10
2018-09-12T18:01:58.549Z,18.90
2018-09-12T18:04:30.072Z,18.70
2018-09-12T18:06:59.276Z,18.50
2018-09-12T18:09:31.938Z,18.40
2018-09-12T18:12:07.440Z,18.50
2018-09-12T18:14:41.238Z,18.40
2018-09-12T18:17:22.693Z,18.30
2018-09-12T18:19:52.890Z,18.40
2018-09-12T18:22:22.217Z,18.30
2018-09-12T18:24:52.595Z,18.30
2018-09-12T18:27:22.417Z,18.00
2018-09-12T18:29:53.520Z,17.80
2018-09-12T18:32:23.492Z,17.50
2018-09-12T18:34:52.303Z,17.20
2018-09-12T18:37:22.116Z,17.20
2018-09-12T18:39:51.543Z,17.20
2018-09-12T18:42:21.300Z,17.20
2018-09-12T18:44:50.150Z,17.30
2018-09-12T18:47:19.554Z,17.20
2018-09-12T18:49:49.658Z,17.20
2018-09-12T18:52:20.554Z,17.10
2018-09-12T18:54:51.315Z,17.00
2018-09-12T18:57:22.144Z,17.10
2018-09-12T18:59:51.272Z,16.80
2018-09-12T19:02:21.298Z,16.80
2018-09-12T19:04:50.055Z,16.90
2018-09-12T19:07:19.367Z,16.80
2018-09-12T19:09:50.913Z,16.90
2018-09-12T19:12:20.607Z,17.00
2018-09-12T19:14:52.763Z,17.10
2018-09-12T19:17:23.012Z,17.10
2018-09-12T19:19:52.743Z,17.20
2018-09-12T19:22:21.551Z,17.00
2018-09-12T19:24:55.492Z,16.90
2018-09-12T19:27:26.269Z,17.00
2018-09-12T19:29:56.122Z,16.90
2018-09-12T19:32:33.564Z,17.00
2018-09-12T19:35:04.645Z,16.90
2018-09-12T19:37:42.269Z,16.90
2018-09-12T19:40:12.364Z,16.80
2018-09-12T19:42:42.286Z,16.90
2018-09-12T19:45:11.611Z,16.80
2018-09-12T19:47:42.392Z,16.80
2018-09-12T19:50:12.524Z,16.80
2018-09-12T19:52:42.195Z,16.80
2018-09-12T19:55:14.351Z,16.80
2018-09-12T19:57:44.693Z,16.70
2018-09-12T20:00:20.597Z,16.70
2018-09-12T20:02:54.293Z,16.70
2018-09-12T20:05:25.329Z,16.70
2018-09-12T20:07:54.528Z,16.60
2018-09-12T20:10:27.329Z,16.60
2018-09-12T20:12:57.179Z,16.60
2018-09-12T20:20:30.164Z,16.50
2018-09-12T20:23:02.890Z,16.60
2018-09-12T20:25:33.731Z,16.70
2018-09-12T20:28:07.528Z,16.70
2018-09-12T20:30:42.234Z,16.80
2018-09-12T20:33:13.773Z,16.60
2018-09-12T20:35:43.621Z,16.70
2018-09-12T20:38:13.168Z,16.60
2018-09-12T20:40:44.307Z,16.70
2018-09-12T20:43:14.578Z,16.50
2018-09-12T20:45:44.792Z,16.50
2018-09-12T20:48:17.192Z,16.60
2018-09-12T20:50:56.365Z,16.40
2018-09-12T20:53:31.793Z,16.40
2018-09-12T20:56:03.743Z,16.40
2018-09-12T20:58:33.570Z,16.50
2018-09-12T21:01:05.698Z,16.50
2018-09-12T21:03:35.353Z,16.30
2018-09-12T21:06:08.244Z,16.40
2018-09-12T21:08:39.173Z,16.30
2018-09-12T21:11:08.628Z,16.30
2018-09-12T21:13:39.291Z,16.30
2018-09-12T21:16:09.598Z,16.40
2018-09-12T21:19:09.283Z,16.40
2018-09-12T21:21:42.229Z,16.30
2018-09-12T21:24:11.394Z,16.30
2018-09-12T21:26:43.228Z,16.40
2018-09-12T21:29:12.568Z,16.40
2018-09-12T21:31:42.403Z,16.20
2018-09-12T21:34:11.910Z,16.10
2018-09-12T21:36:42.549Z,16.00
2018-09-12T21:39:11.376Z,16.00
2018-09-12T21:41:40.476Z,16.20
2018-09-12T21:44:10.116Z,16.10
2018-09-12T21:46:42.931Z,16.00
2018-09-12T21:49:13.045Z,16.10
2018-09-12T21:51:48.328Z,16.20
2018-09-12T21:54:27.507Z,16.30
2018-09-12T21:56:58.267Z,16.30
2018-09-12T21:59:29.243Z,16.10
2018-09-12T22:01:58.022Z,15.80
2018-09-12T22:04:27.973Z,15.70
2018-09-12T22:06:58.931Z,15.70
2018-09-12T22:09:28.276Z,15.70
2018-09-12T22:11:57.043Z,15.80
2018-09-12T22:14:26.371Z,15.80
2018-09-12T22:16:55.170Z,15.70
2018-09-12T22:19:24.376Z,15.50
2018-09-12T22:21:53.110Z,15.40
2018-09-12T22:24:24.079Z,15.40
2018-09-12T22:26:52.784Z,15.40
2018-09-12T22:29:21.548Z,15.30
2018-09-12T22:31:50.287Z,15.40
2018-09-12T22:34:19.048Z,15.30
2018-09-12T22:36:47.969Z,15.30
2018-09-12T22:39:17.536Z,15.30
2018-09-12T22:41:47.237Z,15.40
2018-09-12T22:44:16.776Z,15.40
2018-09-12T22:46:50.553Z,15.30
2018-09-12T22:49:19.455Z,15.20
2018-09-12T22:51:48.174Z,15.10
2018-09-12T22:54:17.788Z,15.00
2018-09-12T22:56:47.267Z,14.90
2018-09-12T22:59:16.207Z,15.00
2018-09-12T23:01:44.986Z,15.00
2018-09-12T23:04:13.760Z,15.00
2018-09-12T23:06:43.107Z,15.00
2018-09-12T23:09:12.849Z,15.00
2018-09-12T23:11:41.602Z,15.10
2018-09-12T23:14:14.901Z,15.00
2018-09-12T23:16:44.245Z,15.20
2018-09-12T23:19:12.948Z,15.30
2018-09-12T23:21:41.841Z,15.30
2018-09-12T23:24:10.574Z,15.30
2018-09-12T23:26:39.280Z,15.30
2018-09-12T23:29:08.007Z,15.30
2018-09-12T23:31:37.176Z,15.30
2018-09-12T23:34:06.583Z,15.30
2018-09-12T23:36:35.343Z,15.30
2018-09-12T23:39:05.876Z,15.40
2018-09-12T23:41:34.656Z,15.50
2018-09-12T23:44:03.377Z,15.50
2018-09-12T23:46:32.108Z,15.50
2018-09-12T23:49:01.425Z,15.40
2018-09-12T23:51:30.160Z,15.40
2018-09-12T23:53:58.897Z,15.50
2018-09-12T23:56:27.687Z,15.30
2018-09-12T23:58:56.419Z,15.20
